Other Surface Observations
Issued by NWS Missoula, MT

Home | Current Version | Previous Version | Text Only | Print | Product List | Glossary On
Versions: 1 2 3 4 5 6 7 8 9 10 11 12 13 14 15 16 17 18 19 20 21 22 23 24 25 26 27 28 29 30 31 32 33 34 35 36 37 38 39 40 41 42 43 44 45 46 47 48 49 50
000
SXUS55 KMSO 012123
OSOMSO
MONTANA AWOS SUMMARY
NATIONAL WEATHER SERVICE MISSOULA MT
223 PM MST WED APR 1 2015

Montana AWOS Reports

ROUNDUP     |KRPX 012115Z AUTO 29019G28KT 40SM 11/M12 A2974 RMK AO1 T01061121
MALTA       |KM75 012115Z AUTO 26016G20KT 40SM 08/M02 A2973 RMK AO1 T00831016
LAUREL      |K6S8 012115Z AUTO 26022G35KT 40SM 11/M14 A2986 RMK AO1 T01061138
TWIN BRIDGES|K7S1 012115Z AUTO 34005KT 40SM 04/M12 A2996 RMK AO1 T00441116




USA.gov is the U.S. government's official web portal to all federal, state and local government web resources and services.